Time;durP1;ratioP1;P1;durP2;ratioP2;P2;SDS_P1;SDS_P2;PMS_P1;PMS_P2;Temp;Humidity;BMP_temperature;BMP_pressure;BME280_temperature;BME280_humidity;BME280_pressure;Samples;Min_cycle;Max_cycle;Signal;HPM_P1;HPM_P2
2023/01/28 00:01:39;;;;;;;17.52;11.45;;;1.60;99.90;;;;;;5090062;28;20082;-60
2023/01/28 00:04:04;;;;;;;15.02;11.15;;;1.60;99.90;;;;;;5070460;28;20044;-59
2023/01/28 00:06:30;;;;;;;14.65;9.68;;;1.60;99.90;;;;;;5071423;28;20564;-60
2023/01/28 00:08:55;;;;;;;16.25;11.50;;;1.70;99.90;;;;;;5086152;28;20104;-60
2023/01/28 00:11:22;;;;;;;14.27;10.23;;;1.60;99.90;;;;;;5090061;28;20142;-60
2023/01/28 00:13:51;;;;;;;14.95;10.60;;;1.70;99.90;;;;;;5069307;28;20047;-60
2023/01/28 00:16:17;;;;;;;15.48;9.98;;;1.70;99.90;;;;;;5090758;28;20036;-60
2023/01/28 00:18:43;;;;;;;16.05;10.65;;;1.70;99.90;;;;;;5085746;28;20105;-60
2023/01/28 00:21:11;;;;;;;14.77;10.98;;;1.70;99.90;;;;;;5055315;28;20046;-59
2023/01/28 00:23:38;;;;;;;17.55;11.93;;;1.70;99.90;;;;;;5070899;28;20397;-60
2023/01/28 00:26:07;;;;;;;16.48;11.45;;;1.70;99.90;;;;;;5089295;28;20048;-60
2023/01/28 00:28:33;;;;;;;18.50;11.07;;;1.70;99.90;;;;;;5085442;28;20054;-60
2023/01/28 00:31:08;;;;;;;18.83;11.30;;;1.70;99.90;;;;;;5090006;28;20131;-59
2023/01/28 00:33:35;;;;;;;14.68;9.80;;;1.70;99.90;;;;;;5070475;28;20717;-60
2023/01/28 00:36:02;;;;;;;15.43;10.18;;;1.70;99.90;;;;;;5090471;28;20039;-60
2023/01/28 00:38:28;;;;;;;17.48;10.27;;;1.70;99.90;;;;;;5067632;28;20138;-60
2023/01/28 00:40:54;;;;;;;15.48;10.18;;;1.70;99.90;;;;;;5090345;28;20043;-59
2023/01/28 00:43:20;;;;;;;14.15;8.90;;;1.70;99.90;;;;;;5089901;28;20077;-60
2023/01/28 00:45:46;;;;;;;12.77;9.05;;;1.70;99.90;;;;;;5089951;28;20040;-60
2023/01/28 00:48:11;;;;;;;13.35;8.70;;;1.70;99.90;;;;;;5086532;28;20066;-60
2023/01/28 00:50:38;;;;;;;12.48;8.02;;;1.70;99.90;;;;;;5068840;28;20130;-59
2023/01/28 00:53:03;;;;;;;14.73;9.13;;;1.70;99.90;;;;;;5089067;28;20059;-59
2023/01/28 00:55:29;;;;;;;13.98;9.18;;;1.70;99.90;;;;;;5074992;28;20070;-60
2023/01/28 00:57:55;;;;;;;13.02;8.77;;;1.70;99.90;;;;;;5077492;28;20047;-60
2023/01/28 01:00:24;;;;;;;12.93;8.10;;;1.70;99.90;;;;;;5102728;28;20023;-60
2023/01/28 01:02:50;;;;;;;13.10;8.55;;;1.70;99.90;;;;;;5085784;28;20043;-60
2023/01/28 01:05:16;;;;;;;12.02;8.10;;;1.70;99.90;;;;;;5104211;28;20619;-60
2023/01/28 01:07:42;;;;;;;13.73;8.25;;;1.70;99.90;;;;;;5105537;28;20039;-59
2023/01/28 01:10:17;;;;;;;14.70;8.20;;;1.60;99.90;;;;;;5104777;28;20224;-60
2023/01/28 01:12:44;;;;;;;12.75;8.13;;;1.60;99.90;;;;;;5076359;28;20048;-59
2023/01/28 01:15:10;;;;;;;13.18;7.82;;;1.70;99.90;;;;;;5094143;28;20043;-59
2023/01/28 01:17:40;;;;;;;12.63;8.50;;;1.60;99.90;;;;;;5098000;28;20047;-60
2023/01/28 01:20:11;;;;;;;13.38;8.10;;;1.60;99.90;;;;;;5084868;28;20044;-59
2023/01/28 01:22:37;;;;;;;14.98;8.32;;;1.60;99.90;;;;;;5067840;28;20040;-60
2023/01/28 01:25:04;;;;;;;14.30;8.90;;;1.60;99.90;;;;;;5084822;28;20067;-60
2023/01/28 01:27:30;;;;;;;12.10;7.90;;;1.70;99.90;;;;;;5104370;28;20031;-60
2023/01/28 01:29:57;;;;;;;13.05;8.23;;;1.60;99.90;;;;;;5097671;28;20076;-60
2023/01/28 01:32:24;;;;;;;13.93;8.82;;;1.60;99.90;;;;;;5089544;28;20376;-60
2023/01/28 01:34:50;;;;;;;15.93;9.13;;;1.60;99.90;;;;;;5093469;28;20040;-59
2023/01/28 01:37:15;;;;;;;13.60;7.85;;;1.60;99.90;;;;;;5085242;28;20089;-60
2023/01/28 01:39:41;;;;;;;13.93;7.95;;;1.60;99.90;;;;;;5066198;28;20558;-60
2023/01/28 01:42:11;;;;;;;12.50;8.50;;;1.60;99.90;;;;;;5084691;28;20741;-60
2023/01/28 01:44:56;;;;;;;12.55;8.00;;;1.60;99.90;;;;;;5070750;28;20038;-60
2023/01/28 01:47:45;;;;;;;11.95;8.30;;;1.60;99.90;;;;;;5100351;28;20035;-60
2023/01/28 01:50:34;;;;;;;11.95;7.45;;;1.60;99.90;;;;;;5079135;28;20039;-60
2023/01/28 01:53:08;;;;;;;12.32;8.15;;;1.60;99.90;;;;;;5087430;28;20055;-60
2023/01/28 01:55:37;;;;;;;13.15;8.20;;;1.60;99.90;;;;;;5105191;28;20054;-59
2023/01/28 01:58:07;;;;;;;13.85;8.18;;;1.60;99.90;;;;;;5085190;28;20040;-59
2023/01/28 02:00:33;;;;;;;14.75;8.48;;;1.60;99.90;;;;;;5084918;28;20086;-60
2023/01/28 02:02:59;;;;;;;15.60;8.70;;;1.60;99.90;;;;;;5084647;28;20046;-60
2023/01/28 02:05:25;;;;;;;13.00;8.38;;;1.60;99.90;;;;;;5084460;28;20039;-60
2023/01/28 02:08:19;;;;;;;12.05;8.48;;;1.60;99.90;;;;;;5083355;28;20071;-60
2023/01/28 02:10:43;;;;;;;12.70;8.43;;;1.60;99.90;;;;;;5084340;28;20618;-59
2023/01/28 02:13:09;;;;;;;10.57;7.32;;;1.60;99.90;;;;;;5082496;28;20036;-60
2023/01/28 02:15:35;;;;;;;12.95;8.00;;;1.60;99.90;;;;;;5083414;28;20185;-60
2023/01/28 02:18:01;;;;;;;13.02;8.32;;;1.60;99.90;;;;;;5094202;28;20047;-60
2023/01/28 02:21:02;;;;;;;12.57;7.97;;;1.60;99.90;;;;;;5087582;28;20046;-60
2023/01/28 02:23:51;;;;;;;12.70;8.30;;;1.60;99.90;;;;;;5084198;28;20078;-60
2023/01/28 02:26:50;;;;;;;11.52;8.05;;;1.60;99.90;;;;;;5083556;28;20084;-60
2023/01/28 02:29:41;;;;;;;12.38;7.55;;;1.60;99.90;;;;;;5085653;28;20775;-60
2023/01/28 02:32:16;;;;;;;12.32;7.70;;;1.60;99.90;;;;;;5101218;28;20047;-60
2023/01/28 02:35:04;;;;;;;11.15;7.55;;;1.60;99.90;;;;;;5083934;28;20056;-59
2023/01/28 02:37:53;;;;;;;11.40;7.80;;;1.60;99.90;;;;;;5116866;27;20133;-60
2023/01/28 02:40:28;;;;;;;11.20;7.57;;;1.60;99.90;;;;;;5094404;28;20050;-60
2023/01/28 02:42:54;;;;;;;13.05;7.80;;;1.60;99.90;;;;;;5103022;28;20043;-60
2023/01/28 02:45:22;;;;;;;13.00;8.20;;;1.60;99.90;;;;;;5097148;28;20120;-60
2023/01/28 02:47:56;;;;;;;11.85;7.47;;;1.60;99.90;;;;;;5095607;28;20036;-59
2023/01/28 02:50:24;;;;;;;13.52;7.70;;;1.60;99.90;;;;;;5083617;28;20384;-59
2023/01/28 02:56:19;;;;;;;10.95;7.50;;;1.60;99.90;;;;;;5083522;28;20040;-59
2023/01/28 03:02:07;;;;;;;13.70;6.85;;;1.60;99.90;;;;;;5083663;28;20501;-60
2023/01/28 03:04:50;;;;;;;10.88;7.57;;;1.60;99.90;;;;;;5082817;28;20032;-61
2023/01/28 03:07:17;;;;;;;12.80;7.43;;;1.60;99.90;;;;;;5084330;28;20047;-60
2023/01/28 03:09:46;;;;;;;14.10;7.07;;;1.60;99.90;;;;;;5082390;28;20086;-60
2023/01/28 03:38:32;;;;;;;12.15;8.02;;;1.50;99.90;;;;;;5082228;28;20044;-59
2023/01/28 03:41:01;;;;;;;12.48;8.40;;;1.50;99.90;;;;;;5081710;28;20043;-59
2023/01/28 03:43:28;;;;;;;13.27;8.00;;;1.50;99.90;;;;;;5082023;28;20444;-59
2023/01/28 03:45:54;;;;;;;12.82;7.65;;;1.50;99.90;;;;;;5082007;28;20040;-60
2023/01/28 03:48:25;;;;;;;14.93;7.30;;;1.50;99.90;;;;;;5081829;28;20054;-60
2023/01/28 03:50:51;;;;;;;12.10;7.70;;;1.40;99.90;;;;;;5064280;28;20044;-60
2023/01/28 03:53:18;;;;;;;13.40;8.60;;;1.40;99.90;;;;;;5066670;28;20056;-60
2023/01/28 03:55:45;;;;;;;13.95;7.57;;;1.40;99.90;;;;;;5082647;28;20484;-60
2023/01/28 03:58:12;;;;;;;10.93;6.97;;;1.40;99.90;;;;;;5082601;28;20097;-60
2023/01/28 04:00:42;;;;;;;11.88;7.03;;;1.50;99.90;;;;;;5089796;28;20032;-60
2023/01/28 04:03:15;;;;;;;11.98;7.35;;;1.50;99.90;;;;;;5082390;28;20047;-60
2023/01/28 04:05:56;;;;;;;10.95;6.75;;;1.50;99.90;;;;;;5097775;28;20122;-59
2023/01/28 04:08:21;;;;;;;10.63;6.38;;;1.50;99.90;;;;;;5101535;28;20040;-59
2023/01/28 04:10:47;;;;;;;9.82;6.68;;;1.50;99.90;;;;;;5100838;28;20072;-60
2023/01/28 04:13:12;;;;;;;13.63;7.43;;;1.50;99.90;;;;;;5102518;28;20047;-60
2023/01/28 04:15:38;;;;;;;10.15;6.68;;;1.50;99.90;;;;;;5090392;28;20040;-60
2023/01/28 04:18:04;;;;;;;15.18;8.07;;;1.50;99.90;;;;;;5082925;28;20057;-59
2023/01/28 04:20:30;;;;;;;11.85;8.07;;;1.50;99.90;;;;;;5082018;28;20043;-60
2023/01/28 04:22:56;;;;;;;16.40;8.75;;;1.50;99.90;;;;;;5080985;28;20087;-59
2023/01/28 04:25:21;;;;;;;13.02;8.98;;;1.50;99.90;;;;;;5114725;28;20044;-60
2023/01/28 04:27:47;;;;;;;14.05;8.02;;;1.50;99.90;;;;;;5082979;28;20076;-60
2023/01/28 04:30:13;;;;;;;14.18;7.57;;;1.50;99.90;;;;;;5084361;28;20037;-60
2023/01/28 04:32:38;;;;;;;10.93;7.57;;;1.50;99.90;;;;;;5085510;28;20472;-60
2023/01/28 04:35:04;;;;;;;13.07;7.90;;;1.50;99.90;;;;;;5086037;28;20105;-59
2023/01/28 04:37:29;;;;;;;13.43;7.85;;;1.40;99.90;;;;;;5086388;28;20160;-60
2023/01/28 04:39:55;;;;;;;11.27;7.80;;;1.40;99.90;;;;;;5085527;28;20043;-60
2023/01/28 04:42:21;;;;;;;12.57;8.00;;;1.40;99.90;;;;;;5085694;28;20043;-60
2023/01/28 04:44:46;;;;;;;13.52;8.15;;;1.40;99.90;;;;;;5084582;28;20036;-60
2023/01/28 04:47:12;;;;;;;11.68;7.65;;;1.40;99.90;;;;;;5086865;28;20139;-60
2023/01/28 04:49:37;;;;;;;12.52;8.20;;;1.40;99.90;;;;;;5083996;28;20072;-60
2023/01/28 04:52:03;;;;;;;14.73;7.85;;;1.40;99.90;;;;;;5085957;28;20048;-60
2023/01/28 04:54:28;;;;;;;13.43;8.23;;;1.40;99.90;;;;;;5084866;28;20515;-60
2023/01/28 04:56:55;;;;;;;12.00;8.35;;;1.40;99.90;;;;;;5089097;28;20478;-60
2023/01/28 04:59:22;;;;;;;12.88;8.05;;;1.40;99.90;;;;;;5096637;28;20070;-59
2023/01/28 05:01:48;;;;;;;11.98;7.57;;;1.40;99.90;;;;;;5086160;28;20054;-59
2023/01/28 05:04:15;;;;;;;12.27;8.40;;;1.40;99.90;;;;;;5080936;28;20032;-59
2023/01/28 05:06:40;;;;;;;14.18;8.68;;;1.40;99.90;;;;;;5085697;28;20123;-60
2023/01/28 05:09:06;;;;;;;13.30;8.50;;;1.40;99.90;;;;;;5100127;28;20143;-60
2023/01/28 05:11:31;;;;;;;12.30;7.80;;;1.40;99.90;;;;;;5105064;28;20044;-60
2023/01/28 05:13:57;;;;;;;12.68;7.57;;;1.40;99.90;;;;;;5105914;28;20036;-60
2023/01/28 05:16:23;;;;;;;11.95;7.85;;;1.40;99.90;;;;;;5087229;28;20316;-60
2023/01/28 05:18:50;;;;;;;12.23;7.95;;;1.40;99.90;;;;;;5081007;28;20047;-60
2023/01/28 05:21:16;;;;;;;13.65;8.23;;;1.30;99.90;;;;;;5085438;28;20103;-60
2023/01/28 05:23:42;;;;;;;11.50;7.28;;;1.30;99.90;;;;;;5067432;28;20105;-59
2023/01/28 05:26:09;;;;;;;10.93;7.60;;;1.30;99.90;;;;;;5096651;28;20887;-60
2023/01/28 05:28:34;;;;;;;11.88;6.55;;;1.30;99.90;;;;;;5101243;28;20435;-60
2023/01/28 05:31:05;;;;;;;10.80;6.85;;;1.30;99.90;;;;;;5085422;28;20047;-59
2023/01/28 05:33:31;;;;;;;12.02;7.90;;;1.30;99.90;;;;;;5084272;28;20814;-60
2023/01/28 05:35:56;;;;;;;12.50;8.35;;;1.30;99.90;;;;;;5085044;28;20039;-59
2023/01/28 05:38:22;;;;;;;14.30;7.45;;;1.30;99.90;;;;;;5084927;28;20055;-60
2023/01/28 05:40:47;;;;;;;13.52;7.25;;;1.30;99.90;;;;;;5084901;28;20075;-60
2023/01/28 05:43:13;;;;;;;13.40;7.45;;;1.30;99.90;;;;;;5085624;28;20051;-60
2023/01/28 05:45:39;;;;;;;11.45;7.32;;;1.30;99.90;;;;;;5085163;28;20063;-58
2023/01/28 05:48:05;;;;;;;10.77;7.63;;;1.30;99.90;;;;;;5067140;28;20532;-60
2023/01/28 05:50:31;;;;;;;14.82;7.93;;;1.30;99.90;;;;;;5084649;28;20044;-60
2023/01/28 05:52:57;;;;;;;12.18;7.70;;;1.30;99.90;;;;;;5084298;28;20090;-60
2023/01/28 05:55:22;;;;;;;13.43;7.93;;;1.30;99.90;;;;;;5084748;28;20464;-60
2023/01/28 05:57:48;;;;;;;12.55;7.72;;;1.30;99.90;;;;;;5084617;28;20602;-60
2023/01/28 06:00:14;;;;;;;12.45;8.38;;;1.30;99.90;;;;;;5066488;28;20039;-59
2023/01/28 06:02:41;;;;;;;15.05;8.40;;;1.30;99.90;;;;;;5084332;28;20047;-59
2023/01/28 06:05:07;;;;;;;13.85;8.48;;;1.20;99.90;;;;;;5084099;28;20533;-59
2023/01/28 06:07:32;;;;;;;12.05;8.05;;;1.20;99.90;;;;;;5066466;28;20525;-59
2023/01/28 06:09:58;;;;;;;12.25;8.20;;;1.20;99.90;;;;;;5065721;28;20270;-59
2023/01/28 06:12:24;;;;;;;14.15;8.93;;;1.30;99.90;;;;;;5083567;28;20617;-59
2023/01/28 06:14:49;;;;;;;16.27;9.10;;;1.30;99.90;;;;;;5083980;28;20491;-59
2023/01/28 06:17:15;;;;;;;12.82;8.63;;;1.20;99.90;;;;;;5103044;28;20040;-59
2023/01/28 06:19:40;;;;;;;14.27;9.32;;;1.20;99.90;;;;;;5095559;28;20043;-59
2023/01/28 06:22:06;;;;;;;14.40;8.68;;;1.30;99.90;;;;;;5084011;28;20404;-59
2023/01/28 06:24:31;;;;;;;15.57;8.90;;;1.20;99.90;;;;;;5084933;28;20039;-60
2023/01/28 06:26:57;;;;;;;14.43;8.40;;;1.20;99.90;;;;;;5105316;28;20042;-59
2023/01/28 06:29:23;;;;;;;13.38;8.52;;;1.20;99.90;;;;;;5087918;28;20043;-59
2023/01/28 06:31:48;;;;;;;12.23;8.05;;;1.30;99.90;;;;;;5066046;28;20391;-59
2023/01/28 06:34:14;;;;;;;13.55;8.13;;;1.30;99.90;;;;;;5084145;28;20067;-59
2023/01/28 06:36:39;;;;;;;14.52;8.60;;;1.20;99.90;;;;;;5066267;28;20510;-59
2023/01/28 06:39:05;;;;;;;14.23;8.48;;;1.20;99.90;;;;;;5084067;28;20129;-59
2023/01/28 06:41:31;;;;;;;13.73;8.68;;;1.20;99.90;;;;;;5083962;28;20040;-59
2023/01/28 06:43:56;;;;;;;12.55;7.80;;;1.30;99.90;;;;;;5084619;28;20125;-59
2023/01/28 06:46:23;;;;;;;12.63;8.30;;;1.20;99.90;;;;;;5102104;28;20040;-60
2023/01/28 06:48:49;;;;;;;14.25;8.57;;;1.20;99.90;;;;;;5087642;28;20498;-59
2023/01/28 06:51:14;;;;;;;14.00;8.10;;;1.20;99.90;;;;;;5083801;28;20051;-59
2023/01/28 06:53:40;;;;;;;14.60;8.68;;;1.30;99.90;;;;;;5082785;28;20056;-60
2023/01/28 06:56:07;;;;;;;14.60;9.25;;;1.30;99.90;;;;;;5083247;28;20059;-60
2023/01/28 06:58:33;;;;;;;15.35;8.32;;;1.30;99.90;;;;;;5065277;28;20047;-59
2023/01/28 07:00:58;;;;;;;15.07;8.95;;;1.20;99.90;;;;;;5083366;28;20043;-59
2023/01/28 07:03:24;;;;;;;14.90;8.90;;;1.20;99.90;;;;;;5082458;28;20044;-60
2023/01/28 07:05:50;;;;;;;14.43;8.43;;;1.20;99.90;;;;;;5081682;28;20050;-59
2023/01/28 07:08:15;;;;;;;15.15;8.65;;;1.20;99.90;;;;;;5100240;28;20082;-59
2023/01/28 07:10:41;;;;;;;15.25;8.30;;;1.20;99.90;;;;;;5083651;28;20044;-59
2023/01/28 07:13:07;;;;;;;13.77;8.10;;;1.20;99.90;;;;;;5064914;28;20043;-59
2023/01/28 07:15:32;;;;;;;14.75;8.65;;;1.20;99.90;;;;;;5074542;28;20655;-59
2023/01/28 07:17:58;;;;;;;17.27;9.32;;;1.20;99.90;;;;;;5083982;28;20479;-60
2023/01/28 07:20:24;;;;;;;15.35;9.70;;;1.20;99.90;;;;;;5082436;28;20123;-59
2023/01/28 07:22:49;;;;;;;18.05;9.65;;;1.10;99.90;;;;;;5082567;28;20058;-59
2023/01/28 07:25:15;;;;;;;14.20;9.52;;;1.10;99.90;;;;;;5083278;28;20036;-60
2023/01/28 07:27:59;;;;;;;16.92;10.48;;;1.00;99.90;;;;;;5083051;28;20035;-60
2023/01/28 07:30:24;;;;;;;15.55;10.65;;;0.90;99.90;;;;;;5083304;28;20097;-59
2023/01/28 07:32:55;;;;;;;17.52;10.55;;;0.80;99.90;;;;;;5082791;28;20047;-59
2023/01/28 07:35:21;;;;;;;18.23;10.23;;;0.80;99.90;;;;;;5066257;28;20048;-59
2023/01/28 07:37:51;;;;;;;16.90;11.02;;;0.70;99.90;;;;;;5067845;28;20036;-60
2023/01/28 07:40:17;;;;;;;17.75;11.15;;;0.60;99.90;;;;;;5103206;28;20036;-59
2023/01/28 07:42:43;;;;;;;19.30;11.18;;;0.60;99.90;;;;;;5102696;28;20047;-61
2023/01/28 07:45:08;;;;;;;19.27;11.48;;;0.50;99.90;;;;;;5083380;28;20541;-60
2023/01/28 07:47:34;;;;;;;18.98;11.30;;;0.40;99.90;;;;;;5084187;28;20486;-60
2023/01/28 07:50:00;;;;;;;18.67;12.10;;;0.40;99.90;;;;;;5092849;28;20291;-60
2023/01/28 07:52:25;;;;;;;17.63;11.32;;;0.40;99.90;;;;;;5089863;28;20548;-60
2023/01/28 07:54:51;;;;;;;20.30;12.80;;;0.30;99.90;;;;;;5100535;28;20668;-61
2023/01/28 07:57:22;;;;;;;21.77;12.02;;;0.30;99.90;;;;;;5100592;28;20043;-61
2023/01/28 07:59:49;;;;;;;21.02;12.52;;;0.30;99.90;;;;;;5096180;28;20711;-60
2023/01/28 08:02:16;;;;;;;19.13;12.30;;;0.40;99.90;;;;;;5099379;28;20035;-61
2023/01/28 08:04:41;;;;;;;19.10;12.50;;;0.40;99.90;;;;;;5100661;28;20460;-61
2023/01/28 08:07:07;;;;;;;21.33;13.18;;;0.50;99.90;;;;;;5105236;28;20047;-60
2023/01/28 08:09:33;;;;;;;18.40;11.38;;;0.60;99.90;;;;;;5104556;28;20035;-61
2023/01/28 08:12:00;;;;;;;20.45;11.35;;;0.70;99.90;;;;;;5103227;28;20038;-61
2023/01/28 08:14:26;;;;;;;20.30;12.15;;;0.70;99.90;;;;;;5104063;28;20085;-61
2023/01/28 08:16:52;;;;;;;19.77;11.48;;;0.80;99.90;;;;;;5107256;28;20703;-61
2023/01/28 08:19:17;;;;;;;19.55;11.60;;;0.80;99.90;;;;;;5096455;28;20932;-61
2023/01/28 08:21:45;;;;;;;17.95;11.25;;;0.80;99.90;;;;;;5085277;28;20040;-61
2023/01/28 08:24:11;;;;;;;20.38;11.68;;;0.80;99.90;;;;;;5083050;28;20051;-61
2023/01/28 08:26:37;;;;;;;20.52;11.52;;;0.80;99.90;;;;;;5086483;28;20036;-61
2023/01/28 08:29:02;;;;;;;19.95;11.40;;;0.80;99.90;;;;;;5084151;28;20047;-61
2023/01/28 08:31:28;;;;;;;18.52;11.25;;;0.80;99.90;;;;;;5084854;28;20131;-61
2023/01/28 08:33:53;;;;;;;16.67;10.90;;;0.80;99.90;;;;;;5066439;28;20086;-61
2023/01/28 08:36:19;;;;;;;17.52;11.10;;;1.00;99.90;;;;;;5087859;28;20089;-61
2023/01/28 08:38:45;;;;;;;15.10;9.77;;;1.10;99.90;;;;;;5084575;28;20032;-61
2023/01/28 08:41:10;;;;;;;15.75;9.65;;;1.30;99.90;;;;;;5084465;28;20044;-61
2023/01/28 08:43:36;;;;;;;18.67;9.88;;;1.20;99.90;;;;;;5084946;28;20379;-61
2023/01/28 08:46:05;;;;;;;16.33;9.48;;;1.30;99.90;;;;;;5083359;28;20036;-61
2023/01/28 08:48:31;;;;;;;15.95;9.38;;;1.30;99.90;;;;;;5085965;28;20052;-60
2023/01/28 08:50:58;;;;;;;14.15;9.52;;;1.40;99.90;;;;;;5084484;28;20491;-59
2023/01/28 08:53:24;;;;;;;14.55;9.15;;;1.50;99.90;;;;;;5083573;28;20090;-60
2023/01/28 08:55:49;;;;;;;14.85;9.52;;;1.70;99.90;;;;;;5093718;28;20554;-61
2023/01/28 08:58:17;;;;;;;12.77;8.05;;;1.80;99.90;;;;;;5118251;27;20056;-60
2023/01/28 09:00:44;;;;;;;13.05;7.93;;;2.00;99.90;;;;;;5096844;28;20460;-60
2023/01/28 09:03:10;;;;;;;13.18;7.47;;;2.20;99.90;;;;;;5092565;28;20032;-60
2023/01/28 09:05:36;;;;;;;12.38;7.45;;;2.30;99.90;;;;;;5092013;28;20043;-61
2023/01/28 09:08:08;;;;;;;11.63;7.50;;;2.40;99.90;;;;;;5092240;28;20534;-61
2023/01/28 09:10:36;;;;;;;10.90;7.28;;;2.40;99.90;;;;;;5092760;28;20322;-60
2023/01/28 09:13:10;;;;;;;10.82;7.32;;;2.40;99.90;;;;;;5086240;28;20126;-60
2023/01/28 09:15:36;;;;;;;13.93;8.32;;;2.40;99.90;;;;;;5082841;28;20043;-60
2023/01/28 09:18:02;;;;;;;14.55;8.13;;;2.40;99.90;;;;;;5084616;27;20044;-59
2023/01/28 09:20:28;;;;;;;13.25;7.75;;;2.40;99.90;;;;;;5085930;27;20047;-61
2023/01/28 09:22:54;;;;;;;12.27;7.80;;;2.40;99.90;;;;;;5137700;27;20601;-61
2023/01/28 09:25:19;;;;;;;13.45;7.93;;;2.40;99.90;;;;;;5104508;28;20039;-61
2023/01/28 09:27:45;;;;;;;18.65;8.57;;;2.40;99.90;;;;;;5138736;27;20055;-60
2023/01/28 09:30:12;;;;;;;14.27;8.07;;;2.30;99.90;;;;;;5130542;27;20036;-61
2023/01/28 09:32:38;;;;;;;12.43;7.53;;;2.30;99.90;;;;;;5092815;28;20047;-60
2023/01/28 09:35:04;;;;;;;11.02;6.32;;;2.30;99.90;;;;;;5096097;27;20043;-60
2023/01/28 09:37:29;;;;;;;13.23;7.13;;;2.30;99.90;;;;;;5105049;28;20051;-63
2023/01/28 09:39:55;;;;;;;12.77;7.07;;;2.40;99.90;;;;;;5102946;28;20043;-62
2023/01/28 09:42:46;;;;;;;12.35;8.05;;;2.60;99.90;;;;;;5099685;28;20035;-61
2023/01/28 09:45:17;;;;;;;12.45;6.10;;;2.70;99.90;;;;;;5085395;28;20059;-62
2023/01/28 09:47:55;;;;;;;10.30;6.28;;;3.00;99.90;;;;;;5094017;28;20498;-62
2023/01/28 09:50:24;;;;;;;11.77;6.35;;;3.20;99.90;;;;;;5084664;28;20241;-62
2023/01/28 09:52:52;;;;;;;11.00;6.00;;;3.60;99.90;;;;;;5082846;28;20052;-62
2023/01/28 09:55:21;;;;;;;10.15;5.95;;;3.90;99.90;;;;;;5085239;28;20497;-61
2023/01/28 09:57:52;;;;;;;10.90;6.85;;;4.10;99.90;;;;;;5059453;28;20395;-63
2023/01/28 10:00:21;;;;;;;11.52;6.32;;;4.40;99.90;;;;;;5067344;28;20055;-62
2023/01/28 10:02:59;;;;;;;10.48;6.20;;;4.80;99.90;;;;;;5054442;28;20043;-62
2023/01/28 10:05:43;;;;;;;11.43;6.40;;;4.90;99.90;;;;;;5066417;28;20276;-63
2023/01/28 10:08:26;;;;;;;8.70;5.50;;;4.90;99.90;;;;;;5065980;28;20044;-62
2023/01/28 10:11:09;;;;;;;10.55;6.15;;;5.30;99.90;;;;;;5065805;28;20484;-61
2023/01/28 10:13:50;;;;;;;12.48;6.03;;;5.40;99.90;;;;;;5066460;28;20105;-62
2023/01/28 10:16:30;;;;;;;8.82;5.45;;;4.90;98.60;;;;;;5082914;28;20040;-61
2023/01/28 10:19:05;;;;;;;10.90;5.53;;;4.70;99.90;;;;;;5069955;28;20047;-62
2023/01/28 10:21:42;;;;;;;9.68;5.95;;;4.60;99.90;;;;;;5066282;28;20043;-63
2023/01/28 10:24:22;;;;;;;8.52;5.30;;;4.50;99.90;;;;;;5065677;28;20119;-62
2023/01/28 10:26:47;;;;;;;10.77;6.00;;;4.60;99.90;;;;;;5081066;28;20044;-62
2023/01/28 10:29:25;;;;;;;10.45;5.45;;;4.50;99.90;;;;;;5065500;28;20055;-62
2023/01/28 10:32:14;;;;;;;10.88;6.13;;;4.40;99.90;;;;;;5084607;28;20496;-62
2023/01/28 10:34:40;;;;;;;9.65;5.88;;;4.20;99.90;;;;;;5065790;28;20048;-62
2023/01/28 10:37:07;;;;;;;10.57;6.25;;;4.00;99.90;;;;;;5084655;28;20043;-62
2023/01/28 10:39:33;;;;;;;10.52;6.00;;;3.90;99.90;;;;;;5064876;28;20043;-61
2023/01/28 10:41:58;;;;;;;8.88;5.47;;;3.80;99.90;;;;;;5083382;28;20077;-61
2023/01/28 10:44:33;;;;;;;10.45;5.93;;;3.80;99.90;;;;;;5065311;28;20548;-62
2023/01/28 10:47:03;;;;;;;10.52;6.03;;;4.10;99.90;;;;;;5066016;28;20715;-61
2023/01/28 10:49:31;;;;;;;11.35;5.72;;;4.50;99.90;;;;;;5080903;28;20063;-62
2023/01/28 10:51:57;;;;;;;9.60;5.28;;;4.60;99.90;;;;;;5065695;28;20479;-62
2023/01/28 10:54:27;;;;;;;8.57;5.38;;;4.60;99.90;;;;;;5083707;28;20059;-63
2023/01/28 10:57:02;;;;;;;9.52;5.43;;;4.80;99.90;;;;;;5073226;28;20032;-62
2023/01/28 10:59:29;;;;;;;9.18;5.78;;;4.90;99.90;;;;;;5083561;28;20624;-63
2023/01/28 11:01:58;;;;;;;9.63;5.55;;;5.10;99.90;;;;;;5065342;28;20040;-62
2023/01/28 11:04:29;;;;;;;9.75;6.05;;;5.50;98.90;;;;;;5083081;28;20082;-63
2023/01/28 11:07:24;;;;;;;10.13;6.22;;;6.00;99.70;;;;;;5065713;28;20048;-62
2023/01/28 11:09:50;;;;;;;11.55;6.20;;;6.40;96.10;;;;;;5047840;28;20087;-62
2023/01/28 11:12:28;;;;;;;9.80;5.65;;;6.90;97.80;;;;;;5064729;28;20051;-62
2023/01/28 11:14:59;;;;;;;9.68;5.78;;;7.20;94.60;;;;;;5069599;28;20050;-63
2023/01/28 11:17:28;;;;;;;9.70;5.90;;;7.40;94.80;;;;;;5082280;28;20047;-62
2023/01/28 11:19:59;;;;;;;8.68;5.65;;;7.40;95.40;;;;;;5064414;28;20044;-63
2023/01/28 11:22:36;;;;;;;10.98;6.13;;;7.30;94.30;;;;;;5065530;28;20222;-62
2023/01/28 11:25:14;;;;;;;9.95;5.63;;;6.80;95.40;;;;;;5064685;28;20541;-61
2023/01/28 11:27:40;;;;;;;11.82;6.00;;;6.60;97.00;;;;;;5065224;28;20645;-61
2023/01/28 11:30:25;;;;;;;8.60;5.93;;;6.30;97.80;;;;;;5065041;28;20078;-61
2023/01/28 11:33:20;;;;;;;10.18;6.40;;;6.10;98.40;;;;;;5064910;28;20423;-60
2023/01/28 11:36:02;;;;;;;11.15;6.07;;;5.90;98.90;;;;;;5048365;28;20093;-61
2023/01/28 11:38:28;;;;;;;11.02;5.80;;;5.80;99.30;;;;;;5064857;28;20040;-60
2023/01/28 11:40:56;;;;;;;12.65;6.50;;;5.80;99.70;;;;;;5047510;28;20473;-61
2023/01/28 11:43:24;;;;;;;9.77;5.82;;;5.80;99.60;;;;;;5065291;28;20498;-61
2023/01/28 11:46:02;;;;;;;12.30;6.20;;;5.70;99.30;;;;;;5065127;28;20582;-60
2023/01/28 11:48:40;;;;;;;10.27;5.78;;;5.70;98.90;;;;;;5064756;28;20109;-61
2023/01/28 11:51:28;;;;;;;9.05;5.95;;;5.70;99.50;;;;;;5100336;28;20109;-62
2023/01/28 11:54:11;;;;;;;10.73;6.28;;;5.80;99.60;;;;;;5092694;28;20062;-61
2023/01/28 11:56:52;;;;;;;9.68;6.40;;;6.00;99.90;;;;;;5095375;28;20028;-61
2023/01/28 11:59:50;;;;;;;10.80;6.25;;;6.10;99.90;;;;;;5081033;28;20452;-61
2023/01/28 12:02:43;;;;;;;10.27;6.97;;;6.00;98.60;;;;;;5082101;28;20047;-60
2023/01/28 12:05:47;;;;;;;12.57;7.13;;;5.90;99.50;;;;;;5091119;28;20044;-61
2023/01/28 12:08:29;;;;;;;12.85;6.97;;;5.70;99.90;;;;;;5082827;28;20048;-62
2023/01/28 12:11:20;;;;;;;11.73;6.95;;;5.80;99.90;;;;;;5082017;28;20052;-61
2023/01/28 12:14:12;;;;;;;12.07;6.43;;;5.80;99.90;;;;;;5081821;28;20036;-61
2023/01/28 12:16:57;;;;;;;12.27;7.40;;;5.80;99.90;;;;;;5083163;28;20080;-61
2023/01/28 12:19:39;;;;;;;10.95;6.82;;;5.80;99.90;;;;;;5081335;28;20097;-60
2023/01/28 12:22:28;;;;;;;11.98;7.40;;;5.80;99.90;;;;;;5081679;28;20040;-61
2023/01/28 12:25:12;;;;;;;12.07;6.97;;;5.80;99.90;;;;;;5099757;28;20040;-62
2023/01/28 12:28:08;;;;;;;14.88;6.82;;;5.70;99.90;;;;;;5082778;28;20071;-64
2023/01/28 12:30:58;;;;;;;13.23;7.75;;;5.60;99.90;;;;;;5098239;28;20046;-62
2023/01/28 12:33:42;;;;;;;12.35;6.95;;;5.60;99.90;;;;;;5097241;28;20754;-62
2023/01/28 12:36:15;;;;;;;13.55;6.13;;;5.80;99.90;;;;;;5099890;28;20043;-62
2023/01/28 12:39:10;;;;;;;12.73;7.18;;;6.10;99.90;;;;;;5084199;28;20138;-62
2023/01/28 12:41:58;;;;;;;13.80;6.88;;;6.30;98.90;;;;;;5081008;28;20605;-61
2023/01/28 12:44:31;;;;;;;10.77;6.30;;;6.60;99.20;;;;;;5079050;28;20067;-61
2023/01/28 12:47:06;;;;;;;11.13;6.97;;;6.40;98.70;;;;;;5083357;28;20036;-62
2023/01/28 12:49:58;;;;;;;12.77;7.35;;;6.10;98.90;;;;;;5080630;28;20040;-62
2023/01/28 12:52:41;;;;;;;12.82;7.60;;;6.00;99.60;;;;;;5082642;28;20032;-61
2023/01/28 12:55:33;;;;;;;14.93;7.53;;;5.90;99.90;;;;;;5082887;28;20040;-62
2023/01/28 12:57:59;;;;;;;15.10;8.20;;;5.80;99.90;;;;;;5076877;28;20239;-62
2023/01/28 13:00:32;;;;;;;11.73;7.90;;;5.80;99.90;;;;;;5087559;28;20036;-62
2023/01/28 13:03:26;;;;;;;14.63;8.32;;;5.60;99.90;;;;;;5083789;28;20043;-62
2023/01/28 13:05:56;;;;;;;12.98;8.23;;;5.40;99.90;;;;;;5084892;28;20040;-62
2023/01/28 13:08:28;;;;;;;15.45;8.10;;;5.10;99.90;;;;;;5089351;28;20426;-62
2023/01/28 13:10:57;;;;;;;11.20;7.38;;;5.10;99.90;;;;;;5082358;28;20319;-62
2023/01/28 13:13:32;;;;;;;13.43;7.55;;;5.20;99.90;;;;;;5117343;27;20044;-61
2023/01/28 13:15:59;;;;;;;15.15;8.32;;;5.30;99.90;;;;;;5082615;28;20043;-63
2023/01/28 13:18:41;;;;;;;14.23;8.57;;;5.30;99.90;;;;;;5082948;28;20051;-62
2023/01/28 13:21:27;;;;;;;14.13;8.45;;;5.50;99.90;;;;;;5085657;28;20078;-60
2023/01/28 13:24:05;;;;;;;14.30;8.30;;;5.60;99.90;;;;;;5085012;28;20146;-61
2023/01/28 13:26:47;;;;;;;15.73;8.32;;;5.50;99.90;;;;;;5084387;28;20047;-60
2023/01/28 13:29:13;;;;;;;13.95;8.05;;;5.50;99.90;;;;;;5082465;28;20086;-62
2023/01/28 13:31:43;;;;;;;14.68;7.95;;;5.40;99.90;;;;;;5086285;28;20331;-62
2023/01/28 13:34:29;;;;;;;15.73;8.75;;;5.40;99.90;;;;;;5084730;28;20130;-63
2023/01/28 13:36:57;;;;;;;15.77;8.60;;;5.50;99.90;;;;;;5085931;28;20075;-62